createdAt,value
2019-03-04T00:00:51.474Z,94841.00
2019-03-04T00:06:21.756Z,94835.00
2019-03-04T00:11:51.028Z,94830.00
2019-03-04T00:17:20.454Z,94829.00
2019-03-04T00:22:50.682Z,94815.00
2019-03-04T00:28:23.791Z,94809.00
2019-03-04T00:33:53.073Z,94792.00
2019-03-04T00:39:22.405Z,94804.00
2019-03-04T00:44:51.690Z,94793.00
2019-03-04T00:50:21.718Z,94784.00
2019-03-04T00:55:50.963Z,94766.00
2019-03-04T01:01:20.241Z,94774.00
2019-03-04T01:06:51.051Z,94761.00
2019-03-04T01:12:20.316Z,94753.00
2019-03-04T01:17:49.666Z,94755.00
2019-03-04T01:23:18.931Z,94736.00
2019-03-04T01:28:48.267Z,94734.00
2019-03-04T01:34:17.611Z,94724.00
2019-03-04T01:39:46.938Z,94727.00
2019-03-04T01:45:18.334Z,94722.00
2019-03-04T01:51:06.933Z,94716.00
2019-03-04T01:56:37.168Z,94698.00
2019-03-04T02:02:06.511Z,94678.00
2019-03-04T02:07:35.809Z,94671.00
2019-03-04T02:13:05.221Z,94651.00
2019-03-04T02:18:34.508Z,94643.00
2019-03-04T02:24:21.671Z,94633.00
2019-03-04T02:29:51.347Z,94626.00
2019-03-04T02:35:20.952Z,94614.00
2019-03-04T02:40:50.505Z,94597.00
2019-03-04T02:46:19.778Z,94591.00
2019-03-04T02:51:49.116Z,94584.00
2019-03-04T02:57:20.920Z,94569.00
2019-03-04T03:02:50.180Z,94554.00
2019-03-04T03:08:19.518Z,94542.00
2019-03-04T03:13:48.826Z,94534.00
2019-03-04T03:19:18.056Z,94516.00
2019-03-04T03:24:47.320Z,94518.00
2019-03-04T03:30:24.401Z,94502.00
2019-03-04T03:35:53.678Z,94496.00
2019-03-04T03:41:22.950Z,94478.00
2019-03-04T03:46:52.206Z,94466.00
2019-03-04T03:52:21.473Z,94457.00
2019-03-04T03:57:50.756Z,94447.00
2019-03-04T04:03:20.107Z,94446.00
2019-03-04T04:08:49.390Z,94420.00
2019-03-04T04:14:18.662Z,94403.00
2019-03-04T04:19:47.919Z,94404.00
2019-03-04T04:25:17.186Z,94402.00
2019-03-04T04:30:46.458Z,94398.00
2019-03-04T04:36:15.796Z,94370.00
2019-03-04T04:41:45.092Z,94364.00
2019-03-04T04:47:15.348Z,94355.00
2019-03-04T04:52:44.617Z,94347.00
2019-03-04T04:58:14.795Z,94337.00
2019-03-04T05:03:44.069Z,94321.00
2019-03-04T05:09:13.419Z,94314.00
2019-03-04T05:14:43.060Z,94304.00
2019-03-04T05:20:25.539Z,94288.00
2019-03-04T05:25:56.771Z,94277.00
2019-03-04T05:31:27.011Z,94269.00
2019-03-04T05:36:57.414Z,94272.00
2019-03-04T05:42:26.840Z,94270.00
2019-03-04T05:47:56.359Z,94260.00
2019-03-04T05:53:25.968Z,94261.00
2019-03-04T05:58:55.384Z,94252.00
2019-03-04T06:04:24.860Z,94247.00
2019-03-04T06:09:54.258Z,94241.00
2019-03-04T06:15:23.735Z,94242.00
2019-03-04T06:20:53.193Z,94235.00
2019-03-04T06:26:22.661Z,94218.00
2019-03-04T06:31:51.993Z,94219.00
2019-03-04T06:37:21.399Z,94214.00
2019-03-04T06:42:50.879Z,94204.00
2019-03-04T06:48:21.484Z,94190.00
2019-03-04T06:54:15.356Z,94171.00
2019-03-04T07:00:16.491Z,94157.00
2019-03-04T07:05:50.229Z,94132.00
2019-03-04T07:11:21.962Z,94132.00
2019-03-04T07:16:50.961Z,94128.00
2019-03-04T07:22:26.215Z,94125.00
2019-03-04T07:27:55.620Z,94111.00
2019-03-04T07:33:24.952Z,94099.00
2019-03-04T07:38:56.599Z,94091.00
2019-03-04T07:44:26.367Z,94088.00
2019-03-04T07:49:55.869Z,94083.00
2019-03-04T07:55:25.321Z,94072.00
2019-03-04T08:00:54.746Z,94077.00
2019-03-04T08:06:24.236Z,94072.00
2019-03-04T08:12:22.367Z,94066.00
2019-03-04T08:17:52.311Z,94054.00
2019-03-04T08:23:22.242Z,94063.00
2019-03-04T08:28:54.201Z,94065.00
2019-03-04T08:34:30.716Z,94064.00
2019-03-04T08:39:54.707Z,94067.00
2019-03-04T08:45:24.448Z,94070.00
2019-03-04T08:50:54.006Z,94079.00
2019-03-04T08:56:23.443Z,94066.00
2019-03-04T09:01:52.963Z,94080.00
2019-03-04T09:07:22.762Z,94104.00
2019-03-04T09:12:52.362Z,94090.00
2019-03-04T09:18:22.022Z,94200.00
2019-03-04T09:23:51.514Z,94200.00
2019-03-04T09:29:22.979Z,94209.00
2019-03-04T09:34:52.634Z,94176.00
2019-03-04T09:40:33.904Z,94149.00
2019-03-04T09:46:03.275Z,94147.00
2019-03-04T09:51:32.599Z,94150.00
2019-03-04T09:57:01.966Z,94155.00
2019-03-04T10:02:31.475Z,94160.00
2019-03-04T10:08:11.735Z,94147.00
2019-03-04T10:13:57.662Z,94152.00
2019-03-04T10:20:00.318Z,94153.00
2019-03-04T10:26:22.641Z,94151.00
2019-03-04T10:31:52.058Z,94152.00
2019-03-04T10:37:31.663Z,94168.00
2019-03-04T10:43:46.695Z,94185.00
2019-03-04T10:49:16.011Z,94188.00
2019-03-04T10:54:45.244Z,94188.00
2019-03-04T11:00:37.356Z,94216.00
2019-03-04T11:06:06.796Z,94207.00
2019-03-04T11:11:36.227Z,94221.00
2019-03-04T11:17:06.531Z,94222.00
2019-03-04T11:22:36.084Z,94241.00
2019-03-04T11:28:05.488Z,94283.00
2019-03-04T11:33:34.760Z,94243.00
2019-03-04T11:39:26.911Z,94296.00
2019-03-04T11:44:57.136Z,94298.00
2019-03-04T11:50:26.425Z,94325.00
2019-03-04T11:55:55.703Z,94335.00
2019-03-04T12:01:32.384Z,94365.00
2019-03-04T12:07:01.810Z,94378.00
2019-03-04T12:12:31.093Z,94356.00
2019-03-04T12:18:00.388Z,94336.00
2019-03-04T12:23:31.680Z,94362.00
2019-03-04T12:29:01.039Z,94375.00
2019-03-04T12:34:30.315Z,94401.00
2019-03-04T12:39:59.594Z,94410.00
2019-03-04T12:45:34.470Z,94443.00
2019-03-04T12:50:59.860Z,94393.00
2019-03-04T12:56:29.111Z,94461.00
2019-03-04T13:01:58.382Z,94487.00
2019-03-04T13:07:27.719Z,94489.00
2019-03-04T13:12:57.061Z,94457.00
2019-03-04T13:18:26.332Z,94499.00
2019-03-04T13:23:55.603Z,94479.00
2019-03-04T13:29:24.864Z,94473.00
2019-03-04T13:34:54.141Z,94462.00
2019-03-04T13:40:23.488Z,94479.00
2019-03-04T13:45:53.718Z,94442.00
2019-03-04T13:51:22.974Z,94418.00
2019-03-04T13:56:52.291Z,94416.00
2019-03-04T14:02:33.767Z,94404.00
2019-03-04T14:08:03.265Z,94392.00
2019-03-04T14:13:32.530Z,94365.00
2019-03-04T14:19:01.815Z,94375.00
2019-03-04T14:24:34.133Z,94365.00
2019-03-04T14:30:04.793Z,94371.00
2019-03-04T14:35:35.627Z,94350.00
2019-03-04T14:41:04.924Z,94359.00
2019-03-04T14:46:34.270Z,94347.00
2019-03-04T14:52:03.541Z,94345.00
2019-03-04T14:57:32.807Z,94375.00
2019-03-04T15:03:02.152Z,94351.00
2019-03-04T15:08:31.423Z,94317.00
2019-03-04T15:14:00.701Z,94307.00
2019-03-04T15:19:29.964Z,94320.00
2019-03-04T15:24:59.244Z,94276.00
2019-03-04T15:30:28.502Z,94269.00
2019-03-04T15:35:57.842Z,94252.00
2019-03-04T15:41:29.687Z,94257.00
2019-03-04T15:46:58.185Z,94253.00
2019-03-04T15:52:28.543Z,94229.00
2019-03-04T15:57:59.803Z,94231.00
2019-03-04T16:03:29.198Z,94231.00
2019-03-04T16:08:58.609Z,94235.00
2019-03-04T16:14:27.876Z,94208.00
2019-03-04T16:19:58.135Z,94190.00
2019-03-04T16:25:27.579Z,94171.00
2019-03-04T16:30:56.994Z,94159.00
2019-03-04T16:36:26.508Z,94170.00
2019-03-04T16:41:55.791Z,94185.00
2019-03-04T16:47:25.078Z,94173.00
2019-03-04T16:53:03.496Z,94189.00
2019-03-04T16:58:32.848Z,94192.00
2019-03-04T17:04:02.115Z,94208.00
2019-03-04T17:09:42.146Z,94230.00
2019-03-04T17:15:19.112Z,94221.00
2019-03-04T17:20:53.891Z,94215.00
2019-03-04T17:26:36.426Z,94215.00
2019-03-04T17:32:14.471Z,94223.00
2019-03-04T17:37:48.751Z,94195.00
2019-03-04T17:43:18.586Z,94250.00
2019-03-04T17:48:48.139Z,94254.00
2019-03-04T17:54:25.878Z,94254.00
2019-03-04T17:59:55.461Z,94269.00
2019-03-04T18:05:25.006Z,94226.00
2019-03-04T18:10:54.495Z,94307.00
2019-03-04T18:16:24.027Z,94265.00
2019-03-04T18:21:54.069Z,94287.00
2019-03-04T18:27:23.575Z,94319.00
2019-03-04T18:33:26.312Z,94307.00
2019-03-04T18:39:21.027Z,94361.00
2019-03-04T18:52:38.132Z,94407.00
2019-03-04T18:58:07.845Z,94425.00
2019-03-04T19:03:37.382Z,94482.00
2019-03-04T19:09:09.060Z,94450.00
2019-03-04T19:14:39.035Z,94480.00
2019-03-04T19:20:18.104Z,94504.00
2019-03-04T19:25:47.691Z,94557.00
2019-03-04T19:31:19.351Z,94579.00
2019-03-04T19:36:51.481Z,94575.00
2019-03-04T19:42:26.385Z,94595.00
2019-03-04T19:47:56.731Z,94613.00
2019-03-04T19:53:26.375Z,94613.00
2019-03-04T19:58:56.032Z,94632.00
2019-03-04T20:04:25.547Z,94625.00
2019-03-04T20:09:58.147Z,94647.00
2019-03-04T20:15:34.382Z,94658.00
2019-03-04T20:21:04.144Z,94657.00
2019-03-04T20:26:51.643Z,94690.00
2019-03-04T20:32:29.016Z,94683.00
2019-03-04T20:38:06.969Z,94713.00
2019-03-04T20:43:36.370Z,94735.00
2019-03-04T20:49:06.150Z,94739.00
2019-03-04T20:54:35.715Z,94732.00
2019-03-04T21:00:26.026Z,94738.00
2019-03-04T21:06:00.457Z,94737.00
2019-03-04T21:11:30.197Z,94747.00
2019-03-04T21:17:05.528Z,94746.00
2019-03-04T21:22:36.917Z,94741.00
2019-03-04T21:28:17.502Z,94724.00
2019-03-04T21:34:33.490Z,94752.00
2019-03-04T21:40:10.519Z,94763.00
2019-03-04T21:46:02.069Z,94786.00
2019-03-04T21:51:41.662Z,94793.00
2019-03-04T21:57:18.626Z,94796.00
2019-03-04T22:03:04.516Z,94850.00
2019-03-04T22:08:33.899Z,94813.00
2019-03-04T22:14:09.111Z,94800.00
2019-03-04T22:19:38.569Z,94788.00
2019-03-04T22:25:11.206Z,94775.00
2019-03-04T22:30:40.849Z,94778.00
2019-03-04T22:36:10.157Z,94785.00
2019-03-04T22:41:39.446Z,94798.00
2019-03-04T22:47:08.815Z,94790.00
2019-03-04T22:52:38.996Z,94807.00
2019-03-04T22:58:08.330Z,94792.00
2019-03-04T23:03:38.971Z,94812.00
2019-03-04T23:09:13.696Z,94784.00
2019-03-04T23:14:42.968Z,94827.00
2019-03-04T23:20:13.124Z,94831.00
2019-03-04T23:25:42.400Z,94853.00
2019-03-04T23:31:11.914Z,94863.00
2019-03-04T23:36:41.251Z,94859.00
2019-03-04T23:42:10.582Z,94858.00
2019-03-04T23:47:39.864Z,94860.00
2019-03-04T23:53:10.094Z,94864.00
2019-03-04T23:58:39.353Z,94875.00
